sensor_id;sensor_type;location;lat;lon;timestamp;P1;durP1;ratioP1;P2;durP2;ratioP2
8626;SDS011;4351;51.422;6.794;2023-08-06T00:01:01;6.67;;;3.57;;
8626;SDS011;4351;51.422;6.794;2023-08-06T00:03:30;5.67;;;3.20;;
8626;SDS011;4351;51.422;6.794;2023-08-06T00:05:59;7.03;;;3.27;;
8626;SDS011;4351;51.422;6.794;2023-08-06T00:08:26;4.17;;;3.40;;
8626;SDS011;4351;51.422;6.794;2023-08-06T00:10:54;5.13;;;3.40;;
8626;SDS011;4351;51.422;6.794;2023-08-06T00:13:22;5.70;;;3.50;;
8626;SDS011;4351;51.422;6.794;2023-08-06T00:15:50;6.30;;;3.40;;
8626;SDS011;4351;51.422;6.794;2023-08-06T00:18:18;5.50;;;3.60;;
8626;SDS011;4351;51.422;6.794;2023-08-06T00:20:47;4.40;;;3.13;;
8626;SDS011;4351;51.422;6.794;2023-08-06T00:23:15;4.50;;;3.30;;
8626;SDS011;4351;51.422;6.794;2023-08-06T00:25:44;5.07;;;3.47;;
8626;SDS011;4351;51.422;6.794;2023-08-06T00:28:11;4.13;;;3.20;;
8626;SDS011;4351;51.422;6.794;2023-08-06T00:30:39;5.77;;;3.13;;
8626;SDS011;4351;51.422;6.794;2023-08-06T00:33:07;4.50;;;2.97;;
8626;SDS011;4351;51.422;6.794;2023-08-06T00:35:35;7.13;;;3.47;;
8626;SDS011;4351;51.422;6.794;2023-08-06T00:38:04;3.97;;;3.20;;
8626;SDS011;4351;51.422;6.794;2023-08-06T00:40:32;5.57;;;3.10;;
8626;SDS011;4351;51.422;6.794;2023-08-06T00:43:00;5.17;;;2.80;;
8626;SDS011;4351;51.422;6.794;2023-08-06T00:45:28;4.40;;;3.23;;
8626;SDS011;4351;51.422;6.794;2023-08-06T00:47:57;4.67;;;3.30;;
8626;SDS011;4351;51.422;6.794;2023-08-06T00:50:25;5.70;;;3.10;;
8626;SDS011;4351;51.422;6.794;2023-08-06T00:52:53;5.40;;;3.40;;
8626;SDS011;4351;51.422;6.794;2023-08-06T00:55:23;5.40;;;3.43;;
8626;SDS011;4351;51.422;6.794;2023-08-06T00:57:51;4.77;;;3.23;;
8626;SDS011;4351;51.422;6.794;2023-08-06T01:00:22;5.57;;;3.13;;
8626;SDS011;4351;51.422;6.794;2023-08-06T01:02:52;6.03;;;3.23;;
8626;SDS011;4351;51.422;6.794;2023-08-06T01:05:20;6.10;;;3.30;;
8626;SDS011;4351;51.422;6.794;2023-08-06T01:07:51;5.73;;;3.13;;
8626;SDS011;4351;51.422;6.794;2023-08-06T01:10:53;9.17;;;3.27;;
8626;SDS011;4351;51.422;6.794;2023-08-06T01:13:33;5.00;;;3.30;;
8626;SDS011;4351;51.422;6.794;2023-08-06T01:16:09;4.97;;;2.90;;
8626;SDS011;4351;51.422;6.794;2023-08-06T01:18:39;3.37;;;2.87;;
8626;SDS011;4351;51.422;6.794;2023-08-06T01:21:09;3.87;;;3.10;;
8626;SDS011;4351;51.422;6.794;2023-08-06T01:23:37;5.03;;;2.90;;
8626;SDS011;4351;51.422;6.794;2023-08-06T01:26:06;4.83;;;3.10;;
8626;SDS011;4351;51.422;6.794;2023-08-06T01:28:43;4.03;;;3.00;;
8626;SDS011;4351;51.422;6.794;2023-08-06T01:31:18;5.37;;;3.40;;
8626;SDS011;4351;51.422;6.794;2023-08-06T01:33:58;4.70;;;3.13;;
8626;SDS011;4351;51.422;6.794;2023-08-06T01:36:29;5.10;;;3.03;;
8626;SDS011;4351;51.422;6.794;2023-08-06T01:38:59;5.80;;;3.30;;
8626;SDS011;4351;51.422;6.794;2023-08-06T01:41:27;4.57;;;3.17;;
8626;SDS011;4351;51.422;6.794;2023-08-06T01:43:56;5.77;;;3.07;;
8626;SDS011;4351;51.422;6.794;2023-08-06T01:46:24;4.90;;;2.90;;
8626;SDS011;4351;51.422;6.794;2023-08-06T01:48:52;6.10;;;2.93;;
8626;SDS011;4351;51.422;6.794;2023-08-06T01:51:20;4.57;;;3.03;;
8626;SDS011;4351;51.422;6.794;2023-08-06T01:53:49;4.10;;;2.90;;
8626;SDS011;4351;51.422;6.794;2023-08-06T01:56:17;4.10;;;2.97;;
8626;SDS011;4351;51.422;6.794;2023-08-06T01:58:45;6.60;;;2.93;;
8626;SDS011;4351;51.422;6.794;2023-08-06T02:01:13;5.03;;;2.70;;
8626;SDS011;4351;51.422;6.794;2023-08-06T02:03:41;3.53;;;2.50;;
8626;SDS011;4351;51.422;6.794;2023-08-06T02:06:09;4.07;;;2.73;;
8626;SDS011;4351;51.422;6.794;2023-08-06T02:08:37;4.47;;;2.87;;
8626;SDS011;4351;51.422;6.794;2023-08-06T02:11:07;3.90;;;2.60;;
8626;SDS011;4351;51.422;6.794;2023-08-06T02:13:35;4.50;;;2.60;;
8626;SDS011;4351;51.422;6.794;2023-08-06T02:16:04;4.77;;;3.30;;
8626;SDS011;4351;51.422;6.794;2023-08-06T02:18:35;3.57;;;2.57;;
8626;SDS011;4351;51.422;6.794;2023-08-06T02:21:02;5.40;;;3.10;;
8626;SDS011;4351;51.422;6.794;2023-08-06T02:23:30;7.37;;;3.17;;
8626;SDS011;4351;51.422;6.794;2023-08-06T02:25:59;5.80;;;3.13;;
8626;SDS011;4351;51.422;6.794;2023-08-06T02:28:29;8.37;;;3.00;;
8626;SDS011;4351;51.422;6.794;2023-08-06T02:30:58;5.70;;;2.90;;
8626;SDS011;4351;51.422;6.794;2023-08-06T02:33:26;6.87;;;2.87;;
8626;SDS011;4351;51.422;6.794;2023-08-06T02:36:01;8.80;;;3.03;;
8626;SDS011;4351;51.422;6.794;2023-08-06T02:38:30;4.17;;;2.97;;
8626;SDS011;4351;51.422;6.794;2023-08-06T02:40:58;4.70;;;2.90;;
8626;SDS011;4351;51.422;6.794;2023-08-06T02:43:25;3.83;;;3.40;;
8626;SDS011;4351;51.422;6.794;2023-08-06T02:45:57;6.67;;;3.13;;
8626;SDS011;4351;51.422;6.794;2023-08-06T02:48:26;3.60;;;2.47;;
8626;SDS011;4351;51.422;6.794;2023-08-06T02:50:56;4.60;;;2.93;;
8626;SDS011;4351;51.422;6.794;2023-08-06T02:53:26;4.17;;;3.00;;
8626;SDS011;4351;51.422;6.794;2023-08-06T02:55:55;4.73;;;2.80;;
8626;SDS011;4351;51.422;6.794;2023-08-06T02:58:31;4.33;;;3.20;;
8626;SDS011;4351;51.422;6.794;2023-08-06T03:01:08;5.97;;;2.70;;
8626;SDS011;4351;51.422;6.794;2023-08-06T03:03:52;8.80;;;2.93;;
8626;SDS011;4351;51.422;6.794;2023-08-06T03:06:26;3.20;;;2.73;;
8626;SDS011;4351;51.422;6.794;2023-08-06T03:08:56;4.87;;;2.70;;
8626;SDS011;4351;51.422;6.794;2023-08-06T03:11:25;4.40;;;3.03;;
8626;SDS011;4351;51.422;6.794;2023-08-06T03:13:58;3.87;;;3.00;;
8626;SDS011;4351;51.422;6.794;2023-08-06T03:16:28;4.97;;;3.10;;
8626;SDS011;4351;51.422;6.794;2023-08-06T03:18:58;4.67;;;3.03;;
8626;SDS011;4351;51.422;6.794;2023-08-06T03:21:26;5.10;;;3.07;;
8626;SDS011;4351;51.422;6.794;2023-08-06T03:23:54;3.57;;;2.97;;
8626;SDS011;4351;51.422;6.794;2023-08-06T03:26:26;7.43;;;2.90;;
8626;SDS011;4351;51.422;6.794;2023-08-06T03:28:54;5.33;;;3.00;;
8626;SDS011;4351;51.422;6.794;2023-08-06T03:31:22;5.13;;;3.03;;
8626;SDS011;4351;51.422;6.794;2023-08-06T03:33:52;3.87;;;2.87;;
8626;SDS011;4351;51.422;6.794;2023-08-06T03:36:24;6.23;;;3.20;;
8626;SDS011;4351;51.422;6.794;2023-08-06T03:38:52;4.53;;;3.07;;
8626;SDS011;4351;51.422;6.794;2023-08-06T03:41:20;3.30;;;2.33;;
8626;SDS011;4351;51.422;6.794;2023-08-06T03:43:48;6.53;;;3.00;;
8626;SDS011;4351;51.422;6.794;2023-08-06T03:46:22;4.27;;;2.70;;
8626;SDS011;4351;51.422;6.794;2023-08-06T03:48:53;5.03;;;2.90;;
8626;SDS011;4351;51.422;6.794;2023-08-06T03:51:21;4.27;;;3.00;;
8626;SDS011;4351;51.422;6.794;2023-08-06T03:53:49;5.60;;;3.10;;
8626;SDS011;4351;51.422;6.794;2023-08-06T03:56:17;3.60;;;2.57;;
8626;SDS011;4351;51.422;6.794;2023-08-06T03:58:45;4.60;;;3.37;;
8626;SDS011;4351;51.422;6.794;2023-08-06T04:01:13;4.73;;;3.23;;
8626;SDS011;4351;51.422;6.794;2023-08-06T04:03:44;2.70;;;2.50;;
8626;SDS011;4351;51.422;6.794;2023-08-06T04:06:13;6.30;;;3.13;;
8626;SDS011;4351;51.422;6.794;2023-08-06T04:08:41;3.83;;;2.80;;
8626;SDS011;4351;51.422;6.794;2023-08-06T04:11:09;3.67;;;2.90;;
8626;SDS011;4351;51.422;6.794;2023-08-06T04:13:42;6.23;;;2.90;;
8626;SDS011;4351;51.422;6.794;2023-08-06T04:16:10;4.03;;;2.80;;
8626;SDS011;4351;51.422;6.794;2023-08-06T04:18:38;4.60;;;3.23;;
8626;SDS011;4351;51.422;6.794;2023-08-06T04:21:06;6.67;;;3.47;;
8626;SDS011;4351;51.422;6.794;2023-08-06T04:23:36;4.50;;;2.93;;
8626;SDS011;4351;51.422;6.794;2023-08-06T04:26:06;4.63;;;3.10;;
8626;SDS011;4351;51.422;6.794;2023-08-06T04:28:35;4.57;;;3.20;;
8626;SDS011;4351;51.422;6.794;2023-08-06T04:31:03;3.33;;;2.90;;
8626;SDS011;4351;51.422;6.794;2023-08-06T04:33:33;6.07;;;3.10;;
8626;SDS011;4351;51.422;6.794;2023-08-06T04:36:06;4.20;;;3.00;;
8626;SDS011;4351;51.422;6.794;2023-08-06T04:38:35;7.20;;;3.40;;
8626;SDS011;4351;51.422;6.794;2023-08-06T04:41:03;5.23;;;3.13;;
8626;SDS011;4351;51.422;6.794;2023-08-06T04:43:31;4.20;;;3.10;;
8626;SDS011;4351;51.422;6.794;2023-08-06T04:45:59;6.67;;;3.13;;
8626;SDS011;4351;51.422;6.794;2023-08-06T04:48:27;4.10;;;3.10;;
8626;SDS011;4351;51.422;6.794;2023-08-06T04:50:55;4.73;;;3.50;;
8626;SDS011;4351;51.422;6.794;2023-08-06T04:53:22;5.90;;;2.97;;
8626;SDS011;4351;51.422;6.794;2023-08-06T04:55:52;4.50;;;2.97;;
8626;SDS011;4351;51.422;6.794;2023-08-06T04:58:20;3.83;;;2.60;;
8626;SDS011;4351;51.422;6.794;2023-08-06T05:00:47;6.70;;;3.30;;
8626;SDS011;4351;51.422;6.794;2023-08-06T05:03:15;5.80;;;2.93;;
8626;SDS011;4351;51.422;6.794;2023-08-06T05:05:43;5.60;;;3.07;;
8626;SDS011;4351;51.422;6.794;2023-08-06T05:08:14;5.53;;;2.90;;
8626;SDS011;4351;51.422;6.794;2023-08-06T05:10:43;4.47;;;3.10;;
8626;SDS011;4351;51.422;6.794;2023-08-06T05:13:12;3.40;;;3.10;;
8626;SDS011;4351;51.422;6.794;2023-08-06T05:15:41;5.33;;;3.00;;
8626;SDS011;4351;51.422;6.794;2023-08-06T05:18:09;4.07;;;2.70;;
8626;SDS011;4351;51.422;6.794;2023-08-06T05:20:38;5.27;;;3.03;;
8626;SDS011;4351;51.422;6.794;2023-08-06T05:23:07;4.13;;;3.10;;
8626;SDS011;4351;51.422;6.794;2023-08-06T05:25:35;4.13;;;2.93;;
8626;SDS011;4351;51.422;6.794;2023-08-06T05:28:03;5.40;;;3.20;;
8626;SDS011;4351;51.422;6.794;2023-08-06T05:30:33;5.10;;;3.30;;
8626;SDS011;4351;51.422;6.794;2023-08-06T05:33:03;3.57;;;3.07;;
8626;SDS011;4351;51.422;6.794;2023-08-06T05:35:31;4.70;;;3.40;;
8626;SDS011;4351;51.422;6.794;2023-08-06T05:37:59;6.10;;;3.23;;
8626;SDS011;4351;51.422;6.794;2023-08-06T05:40:27;3.97;;;3.13;;
8626;SDS011;4351;51.422;6.794;2023-08-06T05:42:55;4.90;;;3.07;;
8626;SDS011;4351;51.422;6.794;2023-08-06T05:45:23;4.97;;;3.20;;
8626;SDS011;4351;51.422;6.794;2023-08-06T05:47:52;5.30;;;3.20;;
8626;SDS011;4351;51.422;6.794;2023-08-06T05:50:24;4.50;;;3.00;;
8626;SDS011;4351;51.422;6.794;2023-08-06T05:52:52;3.80;;;2.80;;
8626;SDS011;4351;51.422;6.794;2023-08-06T05:55:20;8.00;;;3.50;;
8626;SDS011;4351;51.422;6.794;2023-08-06T05:57:48;4.97;;;2.90;;
8626;SDS011;4351;51.422;6.794;2023-08-06T06:00:18;5.13;;;2.90;;
8626;SDS011;4351;51.422;6.794;2023-08-06T06:02:46;4.40;;;2.90;;
8626;SDS011;4351;51.422;6.794;2023-08-06T06:05:15;3.87;;;2.53;;
8626;SDS011;4351;51.422;6.794;2023-08-06T06:07:43;3.90;;;2.80;;
8626;SDS011;4351;51.422;6.794;2023-08-06T06:10:11;3.57;;;2.70;;
8626;SDS011;4351;51.422;6.794;2023-08-06T06:12:40;5.73;;;2.90;;
8626;SDS011;4351;51.422;6.794;2023-08-06T06:15:08;4.23;;;2.67;;
8626;SDS011;4351;51.422;6.794;2023-08-06T06:17:37;4.97;;;3.00;;
8626;SDS011;4351;51.422;6.794;2023-08-06T06:20:06;5.57;;;2.90;;
8626;SDS011;4351;51.422;6.794;2023-08-06T06:22:36;3.90;;;2.80;;
8626;SDS011;4351;51.422;6.794;2023-08-06T06:25:04;6.23;;;2.60;;
8626;SDS011;4351;51.422;6.794;2023-08-06T06:27:33;5.63;;;2.80;;
8626;SDS011;4351;51.422;6.794;2023-08-06T06:30:01;4.03;;;2.63;;
8626;SDS011;4351;51.422;6.794;2023-08-06T06:32:30;4.60;;;2.80;;
8626;SDS011;4351;51.422;6.794;2023-08-06T06:34:58;5.63;;;3.20;;
8626;SDS011;4351;51.422;6.794;2023-08-06T06:37:27;5.50;;;2.83;;
8626;SDS011;4351;51.422;6.794;2023-08-06T06:39:56;4.23;;;2.80;;
8626;SDS011;4351;51.422;6.794;2023-08-06T06:42:24;4.27;;;2.60;;
8626;SDS011;4351;51.422;6.794;2023-08-06T06:44:58;3.73;;;2.77;;
8626;SDS011;4351;51.422;6.794;2023-08-06T06:47:26;3.53;;;2.40;;
8626;SDS011;4351;51.422;6.794;2023-08-06T06:49:54;2.93;;;2.20;;
8626;SDS011;4351;51.422;6.794;2023-08-06T06:52:22;2.83;;;2.37;;
8626;SDS011;4351;51.422;6.794;2023-08-06T06:54:51;3.90;;;2.70;;
8626;SDS011;4351;51.422;6.794;2023-08-06T06:57:20;3.30;;;2.23;;
8626;SDS011;4351;51.422;6.794;2023-08-06T06:59:48;3.30;;;2.40;;
8626;SDS011;4351;51.422;6.794;2023-08-06T07:02:16;4.90;;;2.57;;
8626;SDS011;4351;51.422;6.794;2023-08-06T07:04:44;7.20;;;2.87;;
8626;SDS011;4351;51.422;6.794;2023-08-06T07:07:12;2.80;;;2.40;;
8626;SDS011;4351;51.422;6.794;2023-08-06T07:09:39;4.50;;;2.70;;
8626;SDS011;4351;51.422;6.794;2023-08-06T07:12:07;4.77;;;2.80;;
8626;SDS011;4351;51.422;6.794;2023-08-06T07:14:37;3.10;;;2.30;;
8626;SDS011;4351;51.422;6.794;2023-08-06T07:17:05;6.33;;;3.10;;
8626;SDS011;4351;51.422;6.794;2023-08-06T07:19:33;3.80;;;2.90;;
8626;SDS011;4351;51.422;6.794;2023-08-06T07:22:01;6.40;;;2.87;;
8626;SDS011;4351;51.422;6.794;2023-08-06T07:24:29;3.47;;;2.70;;
8626;SDS011;4351;51.422;6.794;2023-08-06T07:26:56;4.20;;;2.70;;
8626;SDS011;4351;51.422;6.794;2023-08-06T07:29:24;3.27;;;2.43;;
8626;SDS011;4351;51.422;6.794;2023-08-06T07:31:53;3.80;;;2.73;;
8626;SDS011;4351;51.422;6.794;2023-08-06T07:34:22;3.50;;;3.00;;
8626;SDS011;4351;51.422;6.794;2023-08-06T07:36:49;3.80;;;2.73;;
8626;SDS011;4351;51.422;6.794;2023-08-06T07:39:17;3.50;;;2.70;;
8626;SDS011;4351;51.422;6.794;2023-08-06T07:41:45;4.77;;;3.00;;
8626;SDS011;4351;51.422;6.794;2023-08-06T07:44:13;4.90;;;2.90;;
8626;SDS011;4351;51.422;6.794;2023-08-06T07:46:41;3.33;;;3.03;;
8626;SDS011;4351;51.422;6.794;2023-08-06T07:49:10;4.03;;;2.90;;
8626;SDS011;4351;51.422;6.794;2023-08-06T07:51:38;3.40;;;3.07;;
8626;SDS011;4351;51.422;6.794;2023-08-06T07:54:06;3.73;;;3.03;;
8626;SDS011;4351;51.422;6.794;2023-08-06T07:56:34;4.00;;;3.20;;
8626;SDS011;4351;51.422;6.794;2023-08-06T07:59:03;3.63;;;2.70;;
8626;SDS011;4351;51.422;6.794;2023-08-06T08:01:30;4.00;;;2.90;;
8626;SDS011;4351;51.422;6.794;2023-08-06T08:03:58;4.37;;;3.03;;
8626;SDS011;4351;51.422;6.794;2023-08-06T08:06:28;4.63;;;2.90;;
8626;SDS011;4351;51.422;6.794;2023-08-06T08:08:55;4.80;;;4.03;;
8626;SDS011;4351;51.422;6.794;2023-08-06T08:11:23;5.77;;;4.07;;
8626;SDS011;4351;51.422;6.794;2023-08-06T08:13:51;8.23;;;5.10;;
8626;SDS011;4351;51.422;6.794;2023-08-06T08:16:19;7.67;;;6.80;;
8626;SDS011;4351;51.422;6.794;2023-08-06T08:18:47;6.33;;;5.73;;
8626;SDS011;4351;51.422;6.794;2023-08-06T08:21:14;6.40;;;5.77;;
8626;SDS011;4351;51.422;6.794;2023-08-06T08:23:44;7.27;;;5.87;;
8626;SDS011;4351;51.422;6.794;2023-08-06T08:26:11;6.70;;;5.10;;
8626;SDS011;4351;51.422;6.794;2023-08-06T08:28:39;5.80;;;4.53;;
8626;SDS011;4351;51.422;6.794;2023-08-06T08:31:07;7.00;;;4.73;;
8626;SDS011;4351;51.422;6.794;2023-08-06T08:33:36;8.67;;;5.23;;
8626;SDS011;4351;51.422;6.794;2023-08-06T08:36:04;7.13;;;4.47;;
8626;SDS011;4351;51.422;6.794;2023-08-06T08:38:32;10.43;;;4.80;;
8626;SDS011;4351;51.422;6.794;2023-08-06T08:41:02;4.93;;;4.07;;
8626;SDS011;4351;51.422;6.794;2023-08-06T08:43:33;10.23;;;3.93;;
8626;SDS011;4351;51.422;6.794;2023-08-06T08:46:04;6.73;;;3.57;;
8626;SDS011;4351;51.422;6.794;2023-08-06T08:48:35;5.47;;;3.13;;
8626;SDS011;4351;51.422;6.794;2023-08-06T08:51:04;5.47;;;3.57;;
8626;SDS011;4351;51.422;6.794;2023-08-06T08:53:34;5.17;;;3.40;;
8626;SDS011;4351;51.422;6.794;2023-08-06T08:56:07;4.47;;;3.30;;
8626;SDS011;4351;51.422;6.794;2023-08-06T08:58:37;5.87;;;3.77;;
8626;SDS011;4351;51.422;6.794;2023-08-06T09:01:06;5.53;;;3.80;;
8626;SDS011;4351;51.422;6.794;2023-08-06T09:03:36;6.00;;;3.70;;
8626;SDS011;4351;51.422;6.794;2023-08-06T09:06:05;5.03;;;3.77;;
8626;SDS011;4351;51.422;6.794;2023-08-06T09:08:36;3.90;;;3.20;;
8626;SDS011;4351;51.422;6.794;2023-08-06T09:11:09;6.87;;;4.00;;
8626;SDS011;4351;51.422;6.794;2023-08-06T09:13:38;5.40;;;3.63;;
8626;SDS011;4351;51.422;6.794;2023-08-06T09:16:06;4.70;;;3.60;;
8626;SDS011;4351;51.422;6.794;2023-08-06T09:18:35;7.53;;;4.37;;
8626;SDS011;4351;51.422;6.794;2023-08-06T09:21:09;7.77;;;4.23;;
8626;SDS011;4351;51.422;6.794;2023-08-06T09:23:42;5.73;;;3.60;;
8626;SDS011;4351;51.422;6.794;2023-08-06T09:26:13;5.13;;;3.70;;
8626;SDS011;4351;51.422;6.794;2023-08-06T09:28:42;5.47;;;3.60;;
8626;SDS011;4351;51.422;6.794;2023-08-06T09:31:11;6.30;;;3.30;;
8626;SDS011;4351;51.422;6.794;2023-08-06T09:33:39;7.13;;;2.90;;
8626;SDS011;4351;51.422;6.794;2023-08-06T09:36:08;5.90;;;2.87;;
8626;SDS011;4351;51.422;6.794;2023-08-06T09:38:37;3.30;;;2.40;;
8626;SDS011;4351;51.422;6.794;2023-08-06T09:41:10;3.87;;;2.10;;
8626;SDS011;4351;51.422;6.794;2023-08-06T09:43:48;6.13;;;3.03;;
8626;SDS011;4351;51.422;6.794;2023-08-06T09:46:17;4.33;;;3.20;;
8626;SDS011;4351;51.422;6.794;2023-08-06T09:48:45;5.67;;;4.10;;
8626;SDS011;4351;51.422;6.794;2023-08-06T09:51:14;4.30;;;3.40;;
8626;SDS011;4351;51.422;6.794;2023-08-06T09:53:43;10.67;;;6.83;;
8626;SDS011;4351;51.422;6.794;2023-08-06T09:56:12;12.57;;;8.00;;
8626;SDS011;4351;51.422;6.794;2023-08-06T09:58:41;10.43;;;6.30;;
8626;SDS011;4351;51.422;6.794;2023-08-06T10:01:12;7.17;;;5.27;;
8626;SDS011;4351;51.422;6.794;2023-08-06T10:03:41;9.00;;;4.47;;
8626;SDS011;4351;51.422;6.794;2023-08-06T10:06:10;6.20;;;3.93;;
8626;SDS011;4351;51.422;6.794;2023-08-06T10:08:39;7.67;;;4.13;;
8626;SDS011;4351;51.422;6.794;2023-08-06T10:11:09;5.87;;;5.00;;
8626;SDS011;4351;51.422;6.794;2023-08-06T10:13:39;6.60;;;4.83;;
8626;SDS011;4351;51.422;6.794;2023-08-06T10:16:07;6.37;;;5.80;;
8626;SDS011;4351;51.422;6.794;2023-08-06T10:18:41;8.87;;;6.50;;
8626;SDS011;4351;51.422;6.794;2023-08-06T10:21:11;7.67;;;5.93;;
8626;SDS011;4351;51.422;6.794;2023-08-06T10:23:40;9.60;;;7.17;;
8626;SDS011;4351;51.422;6.794;2023-08-06T10:26:08;9.13;;;6.73;;
8626;SDS011;4351;51.422;6.794;2023-08-06T10:28:38;7.30;;;6.03;;
8626;SDS011;4351;51.422;6.794;2023-08-06T10:31:10;9.63;;;6.50;;
8626;SDS011;4351;51.422;6.794;2023-08-06T10:33:44;6.67;;;6.00;;
8626;SDS011;4351;51.422;6.794;2023-08-06T10:36:13;9.93;;;7.20;;
8626;SDS011;4351;51.422;6.794;2023-08-06T10:38:46;9.87;;;7.87;;
8626;SDS011;4351;51.422;6.794;2023-08-06T10:41:15;7.70;;;7.00;;
8626;SDS011;4351;51.422;6.794;2023-08-06T10:43:46;8.50;;;6.93;;
8626;SDS011;4351;51.422;6.794;2023-08-06T10:46:22;6.90;;;6.20;;
8626;SDS011;4351;51.422;6.794;2023-08-06T10:48:53;5.63;;;5.00;;
8626;SDS011;4351;51.422;6.794;2023-08-06T10:51:22;4.90;;;3.17;;
8626;SDS011;4351;51.422;6.794;2023-08-06T10:53:50;4.47;;;2.87;;
8626;SDS011;4351;51.422;6.794;2023-08-06T10:56:19;2.97;;;2.23;;
8626;SDS011;4351;51.422;6.794;2023-08-06T10:58:50;2.53;;;1.40;;
8626;SDS011;4351;51.422;6.794;2023-08-06T11:01:22;1.43;;;1.30;;
8626;SDS011;4351;51.422;6.794;2023-08-06T11:03:52;1.43;;;1.00;;
8626;SDS011;4351;51.422;6.794;2023-08-06T11:06:21;1.77;;;1.30;;
8626;SDS011;4351;51.422;6.794;2023-08-06T11:08:52;1.87;;;1.00;;
8626;SDS011;4351;51.422;6.794;2023-08-06T11:11:21;0.97;;;0.87;;
8626;SDS011;4351;51.422;6.794;2023-08-06T11:13:50;1.83;;;1.00;;
8626;SDS011;4351;51.422;6.794;2023-08-06T11:16:19;1.50;;;0.90;;
8626;SDS011;4351;51.422;6.794;2023-08-06T11:18:50;1.40;;;0.70;;
8626;SDS011;4351;51.422;6.794;2023-08-06T11:21:20;3.57;;;1.40;;
8626;SDS011;4351;51.422;6.794;2023-08-06T11:23:50;1.30;;;1.00;;
8626;SDS011;4351;51.422;6.794;2023-08-06T11:26:19;1.93;;;1.10;;
8626;SDS011;4351;51.422;6.794;2023-08-06T11:28:47;2.13;;;1.10;;
8626;SDS011;4351;51.422;6.794;2023-08-06T11:31:18;1.40;;;0.90;;
8626;SDS011;4351;51.422;6.794;2023-08-06T11:33:47;2.80;;;1.07;;
8626;SDS011;4351;51.422;6.794;2023-08-06T11:36:15;0.83;;;0.80;;
8626;SDS011;4351;51.422;6.794;2023-08-06T11:38:44;1.30;;;1.03;;
8626;SDS011;4351;51.422;6.794;2023-08-06T11:41:12;1.60;;;1.10;;
8626;SDS011;4351;51.422;6.794;2023-08-06T11:43:40;2.40;;;1.13;;
8626;SDS011;4351;51.422;6.794;2023-08-06T11:46:08;1.53;;;1.00;;
8626;SDS011;4351;51.422;6.794;2023-08-06T11:48:50;1.20;;;1.10;;
8626;SDS011;4351;51.422;6.794;2023-08-06T11:51:21;1.57;;;1.17;;
8626;SDS011;4351;51.422;6.794;2023-08-06T11:53:51;1.30;;;1.00;;
8626;SDS011;4351;51.422;6.794;2023-08-06T11:56:21;1.30;;;1.10;;
8626;SDS011;4351;51.422;6.794;2023-08-06T11:58:49;1.50;;;1.10;;
8626;SDS011;4351;51.422;6.794;2023-08-06T12:01:18;1.77;;;1.10;;
8626;SDS011;4351;51.422;6.794;2023-08-06T12:03:47;2.87;;;1.00;;
8626;SDS011;4351;51.422;6.794;2023-08-06T12:06:15;1.20;;;1.00;;
8626;SDS011;4351;51.422;6.794;2023-08-06T12:08:42;1.97;;;1.10;;
8626;SDS011;4351;51.422;6.794;2023-08-06T12:11:12;1.20;;;0.97;;
8626;SDS011;4351;51.422;6.794;2023-08-06T12:13:39;1.10;;;1.00;;
8626;SDS011;4351;51.422;6.794;2023-08-06T12:16:07;1.40;;;1.00;;
8626;SDS011;4351;51.422;6.794;2023-08-06T12:18:36;1.60;;;1.13;;
8626;SDS011;4351;51.422;6.794;2023-08-06T12:21:04;1.40;;;0.90;;
8626;SDS011;4351;51.422;6.794;2023-08-06T12:23:33;1.27;;;1.00;;
8626;SDS011;4351;51.422;6.794;2023-08-06T12:26:01;1.37;;;1.07;;
8626;SDS011;4351;51.422;6.794;2023-08-06T12:28:31;2.83;;;1.20;;
8626;SDS011;4351;51.422;6.794;2023-08-06T12:30:59;1.57;;;1.17;;
8626;SDS011;4351;51.422;6.794;2023-08-06T12:33:28;1.30;;;1.20;;
8626;SDS011;4351;51.422;6.794;2023-08-06T12:35:56;2.40;;;1.60;;
8626;SDS011;4351;51.422;6.794;2023-08-06T12:38:24;2.20;;;1.50;;
8626;SDS011;4351;51.422;6.794;2023-08-06T12:40:52;2.10;;;1.30;;
8626;SDS011;4351;51.422;6.794;2023-08-06T12:43:20;2.00;;;1.47;;
8626;SDS011;4351;51.422;6.794;2023-08-06T12:45:50;2.60;;;1.63;;
8626;SDS011;4351;51.422;6.794;2023-08-06T12:48:18;2.17;;;1.60;;
8626;SDS011;4351;51.422;6.794;2023-08-06T12:50:46;2.57;;;1.70;;
8626;SDS011;4351;51.422;6.794;2023-08-06T12:53:15;2.13;;;1.77;;
8626;SDS011;4351;51.422;6.794;2023-08-06T12:55:43;3.00;;;1.80;;
8626;SDS011;4351;51.422;6.794;2023-08-06T12:58:11;2.47;;;2.03;;
8626;SDS011;4351;51.422;6.794;2023-08-06T13:00:39;1.97;;;1.43;;
8626;SDS011;4351;51.422;6.794;2023-08-06T13:03:08;2.30;;;1.80;;
8626;SDS011;4351;51.422;6.794;2023-08-06T13:05:36;2.10;;;1.80;;
8626;SDS011;4351;51.422;6.794;2023-08-06T13:08:04;2.57;;;1.90;;
8626;SDS011;4351;51.422;6.794;2023-08-06T13:10:32;3.43;;;2.27;;
8626;SDS011;4351;51.422;6.794;2023-08-06T13:13:00;4.47;;;2.80;;
8626;SDS011;4351;51.422;6.794;2023-08-06T13:15:28;4.70;;;2.30;;
8626;SDS011;4351;51.422;6.794;2023-08-06T13:17:56;2.23;;;2.03;;
8626;SDS011;4351;51.422;6.794;2023-08-06T13:20:25;3.53;;;2.50;;
8626;SDS011;4351;51.422;6.794;2023-08-06T13:22:54;4.47;;;2.70;;
8626;SDS011;4351;51.422;6.794;2023-08-06T13:25:22;3.87;;;2.77;;
8626;SDS011;4351;51.422;6.794;2023-08-06T13:27:50;3.20;;;2.57;;
8626;SDS011;4351;51.422;6.794;2023-08-06T13:30:18;2.60;;;2.40;;
8626;SDS011;4351;51.422;6.794;2023-08-06T13:32:46;5.87;;;3.03;;
8626;SDS011;4351;51.422;6.794;2023-08-06T13:35:14;4.43;;;2.87;;
8626;SDS011;4351;51.422;6.794;2023-08-06T13:37:43;3.83;;;2.67;;
8626;SDS011;4351;51.422;6.794;2023-08-06T13:40:11;4.27;;;2.53;;
8626;SDS011;4351;51.422;6.794;2023-08-06T13:42:39;4.70;;;2.70;;
8626;SDS011;4351;51.422;6.794;2023-08-06T13:45:07;3.07;;;2.40;;
8626;SDS011;4351;51.422;6.794;2023-08-06T13:47:35;3.50;;;2.30;;
8626;SDS011;4351;51.422;6.794;2023-08-06T13:50:04;3.30;;;2.50;;
8626;SDS011;4351;51.422;6.794;2023-08-06T13:52:32;3.17;;;2.13;;
8626;SDS011;4351;51.422;6.794;2023-08-06T13:55:03;3.20;;;2.30;;
8626;SDS011;4351;51.422;6.794;2023-08-06T13:57:31;2.40;;;2.10;;
8626;SDS011;4351;51.422;6.794;2023-08-06T13:59:59;3.83;;;2.10;;
8626;SDS011;4351;51.422;6.794;2023-08-06T14:02:27;4.33;;;3.30;;
8626;SDS011;4351;51.422;6.794;2023-08-06T14:04:55;3.93;;;2.60;;
8626;SDS011;4351;51.422;6.794;2023-08-06T14:07:23;4.67;;;2.40;;
8626;SDS011;4351;51.422;6.794;2023-08-06T14:09:51;2.60;;;1.93;;
8626;SDS011;4351;51.422;6.794;2023-08-06T14:12:20;3.40;;;2.20;;
8626;SDS011;4351;51.422;6.794;2023-08-06T14:14:49;3.23;;;2.07;;
8626;SDS011;4351;51.422;6.794;2023-08-06T14:17:17;2.63;;;1.93;;
8626;SDS011;4351;51.422;6.794;2023-08-06T14:19:45;2.43;;;1.83;;
8626;SDS011;4351;51.422;6.794;2023-08-06T14:22:13;2.60;;;2.10;;
8626;SDS011;4351;51.422;6.794;2023-08-06T14:24:41;4.37;;;1.70;;
8626;SDS011;4351;51.422;6.794;2023-08-06T14:27:08;3.57;;;1.73;;
8626;SDS011;4351;51.422;6.794;2023-08-06T14:29:37;3.77;;;2.27;;
8626;SDS011;4351;51.422;6.794;2023-08-06T14:32:06;2.70;;;1.80;;
8626;SDS011;4351;51.422;6.794;2023-08-06T14:34:34;3.43;;;1.97;;
8626;SDS011;4351;51.422;6.794;2023-08-06T14:37:02;2.27;;;1.90;;
8626;SDS011;4351;51.422;6.794;2023-08-06T14:39:31;2.57;;;1.70;;
8626;SDS011;4351;51.422;6.794;2023-08-06T14:41:58;3.07;;;1.77;;
8626;SDS011;4351;51.422;6.794;2023-08-06T14:44:26;3.90;;;1.93;;
8626;SDS011;4351;51.422;6.794;2023-08-06T14:46:56;2.20;;;1.83;;
8626;SDS011;4351;51.422;6.794;2023-08-06T14:49:24;2.50;;;1.80;;
8626;SDS011;4351;51.422;6.794;2023-08-06T14:51:52;2.50;;;1.80;;
8626;SDS011;4351;51.422;6.794;2023-08-06T14:54:20;2.30;;;1.53;;
8626;SDS011;4351;51.422;6.794;2023-08-06T14:56:48;2.97;;;1.67;;
8626;SDS011;4351;51.422;6.794;2023-08-06T14:59:16;3.43;;;1.73;;
8626;SDS011;4351;51.422;6.794;2023-08-06T15:01:44;3.13;;;1.90;;
8626;SDS011;4351;51.422;6.794;2023-08-06T15:04:13;2.00;;;1.67;;
8626;SDS011;4351;51.422;6.794;2023-08-06T15:06:41;2.50;;;1.80;;
8626;SDS011;4351;51.422;6.794;2023-08-06T15:09:09;5.20;;;1.73;;
8626;SDS011;4351;51.422;6.794;2023-08-06T15:11:37;2.93;;;1.70;;
8626;SDS011;4351;51.422;6.794;2023-08-06T15:14:05;3.13;;;1.80;;
8626;SDS011;4351;51.422;6.794;2023-08-06T15:16:33;2.93;;;1.60;;
8626;SDS011;4351;51.422;6.794;2023-08-06T15:19:01;3.33;;;1.70;;
8626;SDS011;4351;51.422;6.794;2023-08-06T15:21:30;2.87;;;1.67;;
8626;SDS011;4351;51.422;6.794;2023-08-06T15:23:58;4.17;;;1.83;;
8626;SDS011;4351;51.422;6.794;2023-08-06T15:26:26;3.93;;;1.77;;